Bayville, New Jersey
Current Conditions -  °F | °C
As of 10:55 AM on Sunday 23 Nov 2014 (Local Time) from KMJX Reporting Station
Clear Clear  
Wind Chill: 11°   Ceiling: Unl
Heat Index: 11°   Visibility: 10mi
Dew Point: -4°   Wind: 3mph
Humidity: 35%   Direction: 220°SW
Pressure: 30.2"   Gusts: NA
Location:  39.91°N, 74.16°W
Report Text: KMJX 231555Z AUTO 22003KT 10SM CLR 11/M04 A3020 RMK AO1
Loading
Personal Weather Stations






























Interactive Weather Map New forecast layout! Learn more

10-Day Weather Forecast

Advertisements
Track Severe Weather on mobile